createdAt,value
2018-12-31T00:04:31.197Z,4.31
2018-12-31T00:07:02.576Z,4.29
2018-12-31T00:09:32.106Z,4.27
2018-12-31T00:12:01.591Z,4.26
2018-12-31T00:14:31.010Z,4.25
2018-12-31T00:17:00.463Z,4.24
2018-12-31T00:19:29.916Z,4.21
2018-12-31T00:21:59.357Z,4.23
2018-12-31T00:24:28.817Z,4.24
2018-12-31T00:26:58.615Z,4.20
2018-12-31T00:29:28.429Z,4.21
2018-12-31T00:32:37.932Z,4.17
2018-12-31T00:35:07.676Z,4.16
2018-12-31T00:37:39.074Z,4.11
2018-12-31T00:40:08.871Z,4.08
2018-12-31T00:42:38.335Z,4.10
2018-12-31T00:45:07.889Z,4.07
2018-12-31T00:47:37.348Z,4.08
2018-12-31T00:50:06.829Z,4.09
2018-12-31T00:52:36.597Z,4.09
2018-12-31T00:55:06.171Z,4.10
2018-12-31T00:57:35.630Z,4.15
2018-12-31T01:00:45.156Z,4.17
2018-12-31T01:03:14.635Z,4.19
2018-12-31T01:05:44.469Z,4.21
2018-12-31T01:14:38.917Z,4.20
2018-12-31T01:17:08.360Z,4.20
2018-12-31T01:19:37.817Z,4.26
2018-12-31T01:22:26.647Z,4.23
2018-12-31T01:24:56.113Z,4.29
2018-12-31T01:27:25.562Z,4.29
2018-12-31T01:29:55.036Z,4.29
2018-12-31T01:32:24.490Z,4.32
2018-12-31T01:34:53.977Z,4.31
2018-12-31T01:37:43.134Z,4.33
2018-12-31T01:40:31.936Z,4.32
2018-12-31T01:43:01.678Z,4.31
2018-12-31T01:45:31.124Z,4.31
2018-12-31T01:48:00.573Z,4.32
2018-12-31T01:50:30.385Z,4.33
2018-12-31T01:52:59.827Z,4.38
2018-12-31T01:55:29.360Z,4.34
2018-12-31T01:57:58.819Z,4.33
2018-12-31T02:00:28.283Z,4.34
2018-12-31T02:02:57.738Z,4.32
2018-12-31T02:05:27.518Z,4.30
2018-12-31T02:07:58.608Z,4.32
2018-12-31T02:10:28.049Z,4.33
2018-12-31T02:13:16.850Z,4.34
2018-12-31T02:15:46.313Z,4.34
2018-12-31T02:18:15.776Z,4.32
2018-12-31T02:20:45.234Z,4.30
2018-12-31T02:23:34.082Z,4.26
2018-12-31T02:26:03.924Z,4.27
2018-12-31T02:28:33.377Z,4.28
2018-12-31T02:31:02.866Z,4.28
2018-12-31T02:33:32.329Z,4.30
2018-12-31T02:38:55.806Z,4.28
2018-12-31T02:41:25.268Z,4.28
2018-12-31T02:43:54.712Z,4.29
2018-12-31T02:46:24.429Z,4.31
2018-12-31T02:48:53.887Z,4.31
2018-12-31T02:51:23.345Z,4.27
2018-12-31T02:53:53.074Z,4.29
2018-12-31T02:56:22.545Z,4.26
2018-12-31T02:58:52.023Z,4.31
2018-12-31T03:01:21.436Z,4.26
2018-12-31T03:03:50.881Z,4.29
2018-12-31T03:06:20.349Z,4.28
2018-12-31T03:08:50.095Z,4.26
2018-12-31T03:11:19.547Z,4.24
2018-12-31T03:13:49.002Z,4.24
2018-12-31T03:16:18.453Z,4.23
2018-12-31T03:18:47.893Z,4.27
2018-12-31T03:21:17.406Z,4.29
2018-12-31T03:23:47.076Z,4.30
2018-12-31T03:26:35.939Z,4.31
2018-12-31T03:29:05.691Z,4.31
2018-12-31T03:31:35.528Z,4.31
2018-12-31T03:34:24.322Z,4.34
2018-12-31T03:36:53.762Z,4.31
2018-12-31T03:39:23.219Z,4.33
2018-12-31T03:41:52.675Z,4.38
2018-12-31T03:44:22.143Z,4.35
2018-12-31T03:47:12.297Z,4.35
2018-12-31T03:50:01.477Z,4.35
2018-12-31T03:52:31.194Z,4.36
2018-12-31T03:55:20.065Z,4.35
2018-12-31T03:57:49.514Z,4.37
2018-12-31T04:00:38.418Z,4.36
2018-12-31T04:03:29.185Z,4.38
2018-12-31T04:05:58.649Z,4.38
2018-12-31T04:08:47.426Z,4.38
2018-12-31T04:11:18.517Z,4.42
2018-12-31T04:13:48.225Z,4.46
2018-12-31T04:16:17.926Z,4.46
2018-12-31T04:18:47.373Z,4.45
2018-12-31T04:21:16.828Z,4.52
2018-12-31T04:23:46.270Z,4.54
2018-12-31T04:26:15.737Z,4.55
2018-12-31T04:28:45.184Z,4.58
2018-12-31T04:31:15.027Z,4.61
2018-12-31T04:33:44.465Z,4.64
2018-12-31T04:36:14.171Z,4.64
2018-12-31T04:38:43.625Z,4.65
2018-12-31T04:41:13.098Z,4.65
2018-12-31T04:44:02.142Z,4.63
2018-12-31T04:46:31.611Z,4.65
2018-12-31T04:49:01.055Z,4.65
2018-12-31T04:51:30.594Z,4.70
2018-12-31T04:54:19.472Z,4.74
2018-12-31T04:57:08.296Z,4.73
2018-12-31T04:59:37.753Z,4.74
2018-12-31T05:02:07.489Z,4.78
2018-12-31T05:04:36.938Z,4.79
2018-12-31T05:07:06.478Z,4.75
2018-12-31T05:09:36.206Z,4.72
2018-12-31T05:12:05.808Z,4.68
2018-12-31T05:14:56.359Z,4.69
2018-12-31T05:17:25.821Z,4.71
2018-12-31T05:20:14.659Z,4.72
2018-12-31T05:22:44.114Z,4.72
2018-12-31T05:25:13.832Z,4.71
2018-12-31T05:27:43.577Z,4.67
2018-12-31T05:30:13.033Z,4.66
2018-12-31T05:33:01.880Z,4.66
2018-12-31T05:35:31.582Z,4.66
2018-12-31T05:38:01.043Z,4.70
2018-12-31T05:40:30.574Z,4.70
2018-12-31T05:43:00.020Z,4.68
2018-12-31T05:45:48.886Z,4.69
2018-12-31T05:48:18.347Z,4.68
2018-12-31T05:51:07.528Z,4.67
2018-12-31T05:53:37.249Z,4.63
2018-12-31T05:56:06.738Z,4.64
2018-12-31T05:58:36.466Z,4.65
2018-12-31T06:01:06.266Z,4.63
2018-12-31T06:03:35.715Z,4.63
2018-12-31T06:06:06.803Z,4.60
2018-12-31T06:08:37.908Z,4.59
2018-12-31T06:11:07.340Z,4.59
2018-12-31T06:13:37.132Z,4.61
2018-12-31T06:16:06.603Z,4.59
2018-12-31T06:18:36.048Z,4.60
2018-12-31T06:21:07.130Z,4.60
2018-12-31T06:23:36.839Z,4.60
2018-12-31T06:26:06.354Z,4.62
2018-12-31T06:28:35.809Z,4.64
2018-12-31T06:31:05.280Z,4.64
2018-12-31T06:33:34.735Z,4.66
2018-12-31T06:36:23.527Z,4.66
2018-12-31T06:38:53.005Z,4.67
2018-12-31T06:41:22.832Z,4.69
2018-12-31T06:43:52.311Z,4.72
2018-12-31T06:46:22.028Z,4.75
2018-12-31T06:48:51.856Z,4.77
2018-12-31T06:54:16.888Z,4.78
2018-12-31T06:56:46.348Z,4.80
2018-12-31T06:59:15.794Z,4.83
2018-12-31T07:01:45.581Z,4.85
2018-12-31T07:04:15.396Z,4.87
2018-12-31T07:06:45.206Z,4.90
2018-12-31T07:09:14.841Z,4.94
2018-12-31T07:11:44.627Z,4.93
2018-12-31T07:14:14.171Z,4.96
2018-12-31T07:16:43.899Z,4.99
2018-12-31T07:19:13.613Z,5.00
2018-12-31T07:21:43.067Z,5.03
2018-12-31T07:24:12.538Z,5.04
2018-12-31T07:26:42.002Z,5.01
2018-12-31T07:29:11.465Z,5.04
2018-12-31T07:31:40.920Z,5.04
2018-12-31T07:34:10.477Z,5.06
2018-12-31T07:36:40.195Z,5.09
2018-12-31T07:39:10.111Z,5.11
2018-12-31T07:41:39.591Z,5.13
2018-12-31T07:44:09.061Z,5.15
2018-12-31T07:46:38.534Z,5.18
2018-12-31T07:49:07.996Z,5.20
2018-12-31T07:51:37.451Z,5.24
2018-12-31T07:54:06.933Z,5.29
2018-12-31T07:56:56.102Z,5.29
2018-12-31T07:59:25.563Z,5.35
2018-12-31T08:01:55.275Z,5.35
2018-12-31T08:04:44.066Z,5.38
2018-12-31T08:07:13.523Z,5.39
2018-12-31T08:10:02.340Z,5.43
2018-12-31T08:12:31.811Z,5.42
2018-12-31T08:15:01.270Z,5.48
2018-12-31T08:17:50.426Z,5.58
2018-12-31T08:20:20.266Z,5.61
2018-12-31T08:22:49.750Z,5.65
2018-12-31T08:25:19.221Z,5.66
2018-12-31T08:27:48.945Z,5.72
2018-12-31T08:30:18.944Z,5.80
2018-12-31T08:33:08.942Z,5.85
2018-12-31T08:35:38.721Z,5.93
2018-12-31T08:38:09.804Z,5.94
2018-12-31T08:40:39.557Z,6.03
2018-12-31T08:43:28.405Z,6.04
2018-12-31T08:46:17.230Z,6.14
2018-12-31T08:48:47.029Z,6.26
2018-12-31T08:51:16.564Z,6.34
2018-12-31T08:53:46.202Z,6.36
2018-12-31T08:56:15.664Z,6.38
2018-12-31T08:58:45.150Z,6.36
2018-12-31T09:01:14.618Z,6.39
2018-12-31T09:03:44.193Z,6.44
2018-12-31T09:06:32.982Z,6.40
2018-12-31T09:11:42.015Z,6.36
2018-12-31T09:14:11.570Z,6.39
2018-12-31T09:17:00.383Z,6.32
2018-12-31T09:19:31.544Z,6.38
2018-12-31T09:22:01.294Z,6.39
2018-12-31T09:27:46.102Z,6.43
2018-12-31T09:30:15.690Z,6.60
2018-12-31T09:32:45.505Z,6.66
2018-12-31T09:35:15.053Z,6.66
2018-12-31T09:37:44.532Z,6.69
2018-12-31T09:40:14.313Z,6.74
2018-12-31T09:42:44.022Z,6.77
2018-12-31T09:45:32.866Z,6.81
2018-12-31T09:48:02.335Z,6.86
2018-12-31T09:50:33.719Z,6.80
2018-12-31T09:53:03.347Z,6.76
2018-12-31T09:55:32.819Z,6.84
2018-12-31T09:58:02.265Z,6.95
2018-12-31T10:00:31.800Z,7.01
2018-12-31T10:03:01.255Z,7.13
2018-12-31T10:05:30.790Z,7.16
2018-12-31T10:08:00.251Z,7.05
2018-12-31T10:10:29.782Z,7.02
2018-12-31T10:12:59.572Z,7.09
2018-12-31T10:15:29.058Z,7.05
2018-12-31T10:17:58.515Z,7.10
2018-12-31T10:20:28.358Z,7.09
2018-12-31T10:23:17.165Z,7.17
2018-12-31T10:25:47.006Z,7.24
2018-12-31T10:28:16.803Z,7.26
2018-12-31T10:30:46.549Z,7.13
2018-12-31T10:33:16.003Z,7.19
2018-12-31T10:35:45.835Z,7.25
2018-12-31T10:38:15.275Z,7.34
2018-12-31T10:40:44.763Z,7.29
2018-12-31T10:43:14.215Z,7.35
2018-12-31T10:45:43.681Z,7.45
2018-12-31T10:48:13.155Z,7.50
2018-12-31T10:50:42.653Z,7.57
2018-12-31T10:53:12.101Z,7.66
2018-12-31T10:55:41.906Z,7.76
2018-12-31T10:58:11.354Z,7.74
2018-12-31T11:00:40.830Z,7.70
2018-12-31T11:03:10.289Z,7.64
2018-12-31T11:05:40.094Z,7.70
2018-12-31T11:08:10.556Z,7.72
2018-12-31T11:11:00.514Z,7.67
2018-12-31T11:13:30.336Z,7.63
2018-12-31T11:15:59.791Z,7.56
2018-12-31T11:18:31.250Z,7.52
2018-12-31T11:23:56.726Z,7.42
2018-12-31T11:26:27.843Z,7.43
2018-12-31T11:28:57.314Z,7.38
2018-12-31T11:31:30.377Z,7.29
2018-12-31T11:34:36.640Z,7.25
2018-12-31T11:37:06.090Z,7.26
2018-12-31T11:39:35.664Z,7.28
2018-12-31T11:42:05.454Z,7.23
2018-12-31T11:44:35.242Z,7.27
2018-12-31T11:47:04.743Z,7.20
2018-12-31T11:49:34.280Z,7.16
2018-12-31T11:52:03.803Z,7.19
2018-12-31T11:54:33.277Z,7.15
2018-12-31T11:57:02.718Z,7.17
2018-12-31T11:59:32.184Z,7.15
2018-12-31T12:02:01.626Z,7.18
2018-12-31T12:04:31.087Z,7.22
2018-12-31T12:07:00.611Z,7.31
2018-12-31T12:09:49.463Z,7.34
2018-12-31T12:12:39.993Z,7.43
2018-12-31T12:15:28.792Z,7.56
2018-12-31T12:18:19.322Z,7.58
2018-12-31T12:21:08.141Z,7.59
2018-12-31T12:23:58.682Z,7.53
2018-12-31T12:26:28.390Z,7.55
2018-12-31T12:28:59.474Z,7.50
2018-12-31T12:31:29.284Z,7.54
2018-12-31T12:33:58.734Z,7.49
2018-12-31T12:36:28.240Z,7.42
2018-12-31T12:38:57.675Z,7.31
2018-12-31T12:41:27.157Z,7.29
2018-12-31T12:44:17.717Z,7.32
2018-12-31T12:46:47.576Z,7.28
2018-12-31T12:49:17.094Z,7.32
2018-12-31T12:51:46.583Z,7.36
2018-12-31T12:54:16.484Z,7.39
2018-12-31T12:57:05.693Z,7.39
2018-12-31T12:59:35.164Z,7.39
2018-12-31T13:02:05.001Z,7.37
2018-12-31T13:04:34.450Z,7.29
2018-12-31T13:07:03.941Z,7.28
2018-12-31T13:09:33.434Z,7.28
2018-12-31T13:12:02.875Z,7.32
2018-12-31T13:14:51.781Z,7.31
2018-12-31T13:17:21.272Z,7.36
2018-12-31T13:19:50.763Z,7.32
2018-12-31T13:22:39.802Z,7.35
2018-12-31T13:25:09.260Z,7.41
2018-12-31T13:27:38.711Z,7.50
2018-12-31T13:30:10.536Z,7.55
2018-12-31T13:32:58.709Z,7.65
2018-12-31T13:35:47.701Z,7.54
2018-12-31T13:38:36.529Z,7.57
2018-12-31T13:41:06.046Z,7.59
2018-12-31T13:43:35.517Z,7.52
2018-12-31T13:46:04.976Z,7.60
2018-12-31T13:48:34.413Z,7.49
2018-12-31T13:51:03.879Z,7.57
2018-12-31T13:53:33.334Z,7.50
2018-12-31T13:56:02.818Z,7.52
2018-12-31T14:04:42.014Z,7.35
2018-12-31T14:07:11.814Z,7.31
2018-12-31T14:10:02.407Z,7.31
2018-12-31T14:12:32.248Z,7.30
2018-12-31T14:15:01.714Z,7.26
2018-12-31T14:17:31.443Z,7.26
2018-12-31T14:20:00.909Z,7.23
2018-12-31T14:22:30.371Z,7.18
2018-12-31T14:24:59.819Z,7.17
2018-12-31T14:27:48.671Z,7.18
2018-12-31T14:30:18.137Z,7.17
2018-12-31T14:32:47.587Z,7.13
2018-12-31T14:35:17.046Z,7.09
2018-12-31T14:41:19.953Z,7.02
2018-12-31T14:43:49.447Z,7.03
2018-12-31T14:46:57.646Z,7.01
2018-12-31T14:49:27.105Z,7.02
2018-12-31T14:51:56.653Z,7.04
2018-12-31T14:54:26.092Z,7.02
2018-12-31T14:56:55.586Z,6.98
2018-12-31T14:59:25.047Z,6.96
2018-12-31T15:01:54.537Z,6.97
2018-12-31T15:04:23.994Z,6.93
2018-12-31T15:06:53.808Z,6.89
2018-12-31T15:09:23.268Z,6.91
2018-12-31T15:11:52.726Z,6.91
2018-12-31T15:14:22.189Z,6.91
2018-12-31T15:16:51.667Z,6.91
2018-12-31T15:19:40.525Z,6.88
2018-12-31T15:22:10.007Z,6.87
2018-12-31T15:24:39.529Z,6.85
2018-12-31T15:27:09.025Z,6.85
2018-12-31T15:29:38.508Z,6.79
2018-12-31T15:32:08.071Z,6.78
2018-12-31T15:34:37.547Z,6.77
2018-12-31T15:37:26.357Z,6.77
2018-12-31T15:40:16.928Z,6.75
2018-12-31T15:43:06.157Z,6.74
2018-12-31T15:46:20.153Z,6.77
2018-12-31T15:49:07.016Z,6.77
2018-12-31T15:51:55.853Z,6.77
2018-12-31T15:54:25.306Z,6.77
2018-12-31T15:57:15.847Z,6.75
2018-12-31T15:59:45.299Z,6.73
2018-12-31T16:02:14.854Z,6.73
2018-12-31T16:04:44.298Z,6.75
2018-12-31T16:07:13.754Z,6.81
2018-12-31T16:10:02.665Z,6.82
2018-12-31T16:12:32.126Z,6.86
2018-12-31T16:15:22.663Z,6.87
2018-12-31T16:18:11.501Z,6.90
2018-12-31T16:21:02.069Z,6.88
2018-12-31T16:24:11.922Z,6.90
2018-12-31T16:29:54.949Z,6.93
2018-12-31T16:32:24.506Z,6.86
2018-12-31T16:34:53.969Z,6.89
2018-12-31T16:37:23.453Z,6.83
2018-12-31T16:40:13.999Z,6.83
2018-12-31T16:42:43.497Z,6.81
2018-12-31T16:45:12.954Z,6.77
2018-12-31T16:48:01.786Z,6.78
2018-12-31T16:50:50.602Z,6.79
2018-12-31T16:56:34.034Z,6.79
2018-12-31T16:59:24.941Z,6.77
2018-12-31T17:01:54.413Z,6.77
2018-12-31T17:04:24.236Z,6.73
2018-12-31T17:06:53.707Z,6.71
2018-12-31T17:09:42.558Z,6.75
2018-12-31T17:12:12.022Z,6.73
2018-12-31T17:14:41.830Z,6.72
2018-12-31T17:17:12.069Z,6.69
2018-12-31T17:19:41.538Z,6.73
2018-12-31T17:22:11.273Z,6.72
2018-12-31T17:24:40.743Z,6.73
2018-12-31T17:27:10.203Z,6.75
2018-12-31T17:30:00.793Z,6.78
2018-12-31T17:32:30.279Z,6.75
2018-12-31T17:34:59.736Z,6.75
2018-12-31T17:37:29.237Z,6.72
2018-12-31T17:39:58.691Z,6.72
2018-12-31T17:42:28.175Z,6.75
2018-12-31T17:48:07.117Z,6.73
2018-12-31T17:50:55.947Z,6.75
2018-12-31T17:53:46.494Z,6.72
2018-12-31T17:56:15.947Z,6.69
2018-12-31T17:59:04.783Z,6.63
2018-12-31T18:01:34.238Z,6.61
2018-12-31T18:04:03.798Z,6.59
2018-12-31T18:06:33.262Z,6.55
2018-12-31T18:09:22.107Z,6.50
2018-12-31T18:14:41.676Z,6.48
2018-12-31T18:17:11.588Z,6.46
2018-12-31T18:20:00.447Z,6.48
2018-12-31T18:22:29.930Z,6.48
2018-12-31T18:25:19.000Z,6.45
2018-12-31T18:28:07.830Z,6.44
2018-12-31T18:30:37.323Z,6.47
2018-12-31T18:33:06.950Z,6.45
2018-12-31T18:35:36.777Z,6.47
2018-12-31T18:38:06.264Z,6.45
2018-12-31T18:40:35.707Z,6.45
2018-12-31T18:43:26.250Z,6.44
2018-12-31T18:45:55.708Z,6.47
2018-12-31T18:48:44.859Z,6.48
2018-12-31T18:54:03.032Z,6.53
2018-12-31T18:56:52.205Z,6.54
2018-12-31T18:59:41.064Z,6.54
2018-12-31T19:02:10.515Z,6.57
2018-12-31T19:05:20.828Z,6.55
2018-12-31T19:08:09.411Z,6.54
2018-12-31T19:10:39.200Z,6.56
2018-12-31T19:13:27.780Z,6.59
2018-12-31T19:15:57.682Z,6.58
2018-12-31T19:18:46.539Z,6.58
2018-12-31T19:21:15.994Z,6.61
2018-12-31T19:23:45.800Z,6.61
2018-12-31T19:26:15.246Z,6.61
2018-12-31T19:28:57.212Z,6.67
2018-12-31T19:31:26.678Z,6.66
2018-12-31T19:33:56.157Z,6.66
2018-12-31T19:36:25.619Z,6.72
2018-12-31T19:38:56.735Z,6.73
2018-12-31T19:41:26.188Z,6.72
2018-12-31T19:43:55.655Z,6.71
2018-12-31T19:46:44.775Z,6.74
2018-12-31T19:55:03.265Z,6.75
2018-12-31T19:57:33.099Z,6.84
2018-12-31T20:00:02.760Z,6.79
2018-12-31T20:05:20.672Z,6.83
2018-12-31T20:08:09.526Z,6.82
2018-12-31T20:10:38.979Z,6.79
2018-12-31T20:13:10.078Z,6.84
2018-12-31T20:15:39.538Z,6.82
2018-12-31T20:18:30.084Z,6.82
2018-12-31T20:21:18.918Z,6.80
2018-12-31T20:24:07.516Z,6.84
2018-12-31T20:26:56.383Z,6.88
2018-12-31T20:29:25.876Z,6.86
2018-12-31T20:31:55.336Z,6.85
2018-12-31T20:34:24.811Z,6.83
2018-12-31T20:37:13.653Z,6.83
2018-12-31T20:40:02.523Z,6.85
2018-12-31T20:42:31.976Z,6.84
2018-12-31T20:45:21.143Z,6.88
2018-12-31T20:48:31.318Z,6.83
2018-12-31T20:51:00.779Z,6.84
2018-12-31T20:53:30.529Z,6.82
2018-12-31T20:56:19.111Z,6.80
2018-12-31T20:59:08.323Z,6.81
2018-12-31T21:01:37.774Z,6.81
2018-12-31T21:04:07.489Z,6.79
2018-12-31T21:09:25.395Z,6.79
2018-12-31T21:11:55.240Z,6.76
2018-12-31T21:14:24.712Z,6.78
2018-12-31T21:16:54.199Z,6.82
2018-12-31T21:19:23.663Z,6.78
2018-12-31T21:22:12.911Z,6.79
2018-12-31T21:25:02.175Z,6.85
2018-12-31T21:27:52.715Z,6.79
2018-12-31T21:30:22.222Z,6.89
2018-12-31T21:32:51.694Z,6.93
2018-12-31T21:35:40.319Z,6.92
2018-12-31T21:38:09.781Z,6.85
2018-12-31T21:40:39.249Z,6.87
2018-12-31T21:43:28.065Z,6.86
2018-12-31T21:45:57.534Z,6.88
2018-12-31T21:48:46.677Z,6.92
2018-12-31T21:51:16.150Z,6.92
2018-12-31T21:57:06.798Z,6.94
2018-12-31T21:59:55.601Z,6.93
2018-12-31T22:08:47.236Z,6.96
2018-12-31T22:11:36.074Z,6.95
2018-12-31T22:14:24.962Z,6.96
2018-12-31T22:17:13.536Z,6.95
2018-12-31T22:19:43.027Z,6.98
2018-12-31T22:22:12.485Z,7.03
2018-12-31T22:24:41.955Z,7.02
2018-12-31T22:30:19.212Z,7.04
2018-12-31T22:41:27.294Z,7.05
2018-12-31T22:44:16.133Z,7.07
2018-12-31T22:46:45.605Z,7.06
2018-12-31T22:49:15.063Z,7.00
2018-12-31T22:52:03.633Z,7.03
2018-12-31T22:54:33.424Z,7.06
2018-12-31T22:57:22.078Z,7.12
2018-12-31T22:59:51.554Z,7.12
2018-12-31T23:02:21.041Z,7.09
2018-12-31T23:05:10.248Z,7.07
2018-12-31T23:08:19.808Z,7.10
2018-12-31T23:10:49.596Z,7.10
2018-12-31T23:13:19.403Z,7.08
2018-12-31T23:15:48.868Z,7.15
2018-12-31T23:18:18.320Z,7.15
2018-12-31T23:23:50.395Z,7.10
2018-12-31T23:26:40.972Z,7.13
2018-12-31T23:29:30.197Z,7.13
2018-12-31T23:32:00.018Z,7.12
2018-12-31T23:34:29.818Z,7.13
2018-12-31T23:36:59.288Z,7.12
2018-12-31T23:39:30.393Z,7.14
2018-12-31T23:41:59.856Z,7.15
2018-12-31T23:44:53.088Z,7.15
2018-12-31T23:47:40.956Z,7.15
2018-12-31T23:50:31.509Z,7.15
2018-12-31T23:53:00.979Z,7.16
2018-12-31T23:55:30.448Z,7.18
2018-12-31T23:57:59.901Z,7.16
